createdAt,value
2019-04-11T00:01:33.886Z,13.00
2019-04-11T00:03:53.550Z,13.00
2019-04-11T00:06:23.529Z,12.90
2019-04-11T00:08:54.314Z,12.80
2019-04-11T00:11:24.129Z,12.80
2019-04-11T00:13:53.790Z,12.90
2019-04-11T00:16:23.502Z,12.80
2019-04-11T00:18:54.714Z,12.80
2019-04-11T00:21:25.595Z,12.80
2019-04-11T00:23:55.253Z,12.80
2019-04-11T00:26:24.918Z,12.70
2019-04-11T00:28:54.638Z,12.70
2019-04-11T00:31:25.143Z,12.60
2019-04-11T00:33:54.859Z,12.60
2019-04-11T00:36:24.516Z,12.60
2019-04-11T00:38:54.968Z,12.60
2019-04-11T00:41:25.752Z,12.60
2019-04-11T00:43:56.646Z,12.60
2019-04-11T00:46:28.611Z,12.70
2019-04-11T00:48:58.380Z,12.70
2019-04-11T00:51:28.108Z,12.60
2019-04-11T00:53:58.320Z,12.60
2019-04-11T00:56:28.425Z,12.50
2019-04-11T00:59:00.178Z,12.50
2019-04-11T01:01:31.602Z,12.40
2019-04-11T01:04:01.405Z,12.40
2019-04-11T01:06:31.213Z,12.30
2019-04-11T01:09:02.038Z,12.30
2019-04-11T01:11:34.169Z,12.40
2019-04-11T01:14:04.089Z,12.40
2019-04-11T01:16:38.894Z,12.50
2019-04-11T01:19:08.802Z,12.50
2019-04-11T01:21:38.461Z,12.60
2019-04-11T01:24:09.235Z,12.60
2019-04-11T01:26:39.174Z,12.50
2019-04-11T01:29:09.241Z,12.50
2019-04-11T01:31:40.454Z,12.50
2019-04-11T01:34:10.633Z,12.50
2019-04-11T01:36:40.428Z,12.50
2019-04-11T01:39:29.354Z,12.40
2019-04-11T01:42:00.690Z,12.40
2019-04-11T01:44:30.486Z,12.50
2019-04-11T01:47:00.073Z,12.40
2019-04-11T01:49:30.391Z,12.40
2019-04-11T01:52:02.430Z,12.40
2019-04-11T01:54:32.329Z,12.40
2019-04-11T01:57:01.900Z,12.40
2019-04-11T01:59:31.558Z,12.30
2019-04-11T02:02:19.162Z,12.30
2019-04-11T02:04:53.000Z,12.30
2019-04-11T02:07:24.736Z,12.30
2019-04-11T02:09:54.791Z,12.30
2019-04-11T02:12:24.392Z,12.30
2019-04-11T02:14:54.053Z,12.20
2019-04-11T02:17:24.384Z,12.20
2019-04-11T02:19:54.054Z,12.20
2019-04-11T02:22:34.738Z,12.20
2019-04-11T02:25:08.120Z,12.20
2019-04-11T02:27:40.186Z,12.20
2019-04-11T02:30:13.509Z,12.10
2019-04-11T02:32:45.058Z,12.10
2019-04-11T02:35:15.404Z,12.10
2019-04-11T02:37:47.600Z,12.00
2019-04-11T02:40:20.112Z,12.00
2019-04-11T02:42:49.907Z,12.10
2019-04-11T02:45:31.116Z,12.10
2019-04-11T02:47:53.939Z,12.10
2019-04-11T02:50:24.213Z,12.00
2019-04-11T02:52:56.548Z,12.00
2019-04-11T02:55:27.727Z,12.00
2019-04-11T02:57:59.794Z,12.00
2019-04-11T03:00:30.852Z,11.90
2019-04-11T03:03:01.643Z,11.80
2019-04-11T03:05:34.442Z,11.80
2019-04-11T03:08:07.795Z,11.80
2019-04-11T03:10:36.069Z,11.80
2019-04-11T03:13:05.613Z,11.80
2019-04-11T03:15:48.442Z,11.80
2019-04-11T03:18:09.390Z,11.80
2019-04-11T03:20:45.730Z,11.90
2019-04-11T03:23:13.835Z,11.90
2019-04-11T03:25:42.705Z,11.90
2019-04-11T03:28:18.639Z,11.90
2019-04-11T03:31:03.886Z,11.90
2019-04-11T03:34:01.210Z,11.90
2019-04-11T03:38:42.760Z,11.90
2019-04-11T03:41:06.002Z,11.90
2019-04-11T03:43:34.118Z,11.90
2019-04-11T03:46:11.916Z,11.90
2019-04-11T03:48:36.844Z,11.90
2019-04-11T03:50:57.332Z,11.90
2019-04-11T03:53:29.526Z,11.90
2019-04-11T03:55:58.811Z,11.90
2019-04-11T03:58:29.468Z,11.80
2019-04-11T04:01:03.434Z,11.80
2019-04-11T04:03:34.057Z,11.80
2019-04-11T04:06:04.443Z,11.80
2019-04-11T04:08:34.830Z,11.80
2019-04-11T04:11:16.810Z,11.80
2019-04-11T04:13:49.920Z,11.80
2019-04-11T04:16:31.216Z,11.80
2019-04-11T04:19:15.817Z,11.80
2019-04-11T04:21:47.036Z,11.70
2019-04-11T04:24:32.147Z,11.70
2019-04-11T04:27:01.738Z,11.70
2019-04-11T04:29:32.394Z,11.80
2019-04-11T04:32:03.544Z,11.80
2019-04-11T04:34:35.963Z,11.80
2019-04-11T04:37:05.927Z,11.80
2019-04-11T04:39:37.676Z,11.90
2019-04-11T04:42:17.193Z,11.90
2019-04-11T04:44:40.433Z,11.80
2019-04-11T04:47:21.074Z,11.90
2019-04-11T04:49:43.678Z,11.80
2019-04-11T04:52:14.389Z,11.80
2019-04-11T04:54:44.479Z,11.70
2019-04-11T04:57:15.616Z,11.80
2019-04-11T04:59:46.947Z,11.90
2019-04-11T05:02:17.816Z,11.90
2019-04-11T05:04:48.479Z,11.90
2019-04-11T05:07:19.443Z,11.90
2019-04-11T05:09:50.350Z,11.90
2019-04-11T05:12:20.503Z,11.90
2019-04-11T05:14:51.999Z,11.90
2019-04-11T05:17:23.097Z,12.00
2019-04-11T05:19:52.899Z,12.00
2019-04-11T05:22:22.555Z,11.90
2019-04-11T05:24:52.160Z,11.80
2019-04-11T05:27:22.757Z,11.90
2019-04-11T05:29:53.554Z,11.90
2019-04-11T05:32:23.967Z,11.90
2019-04-11T05:34:54.438Z,12.00
2019-04-11T05:37:24.097Z,12.10
2019-04-11T05:39:53.598Z,12.20
2019-04-11T05:42:26.700Z,12.20
2019-04-11T05:44:54.765Z,12.10
2019-04-11T05:47:25.519Z,12.20
2019-04-11T05:50:10.012Z,12.30
2019-04-11T05:52:37.112Z,12.20
2019-04-11T05:55:11.952Z,12.10
2019-04-11T05:57:41.934Z,12.20
2019-04-11T06:00:16.789Z,12.30
2019-04-11T06:02:49.149Z,12.40
2019-04-11T06:05:23.830Z,12.50
2019-04-11T06:07:57.289Z,12.50
2019-04-11T06:10:28.283Z,12.50
2019-04-11T06:13:02.602Z,12.50
2019-04-11T06:15:33.860Z,12.50
2019-04-11T06:18:05.236Z,12.50
2019-04-11T06:20:45.255Z,12.50
2019-04-11T06:23:37.168Z,12.50
2019-04-11T06:26:26.893Z,12.40
2019-04-11T06:29:01.254Z,12.50
2019-04-11T06:31:49.477Z,12.50
2019-04-11T06:34:19.165Z,12.50
2019-04-11T06:36:50.374Z,12.50
2019-04-11T06:39:21.596Z,12.50
2019-04-11T06:41:52.808Z,12.60
2019-04-11T06:44:35.965Z,12.60
2019-04-11T06:47:08.219Z,12.50
2019-04-11T06:49:48.895Z,12.60
2019-04-11T06:52:18.896Z,12.50
2019-04-11T06:54:59.234Z,12.50
2019-04-11T06:57:34.154Z,12.50
2019-04-11T07:00:07.284Z,12.50
2019-04-11T07:02:38.949Z,12.50
2019-04-11T07:05:13.985Z,12.60
2019-04-11T07:07:51.594Z,12.60
2019-04-11T07:10:26.545Z,12.70
2019-04-11T07:13:00.715Z,12.70
2019-04-11T07:15:32.109Z,12.70
2019-04-11T07:18:20.499Z,12.80
2019-04-11T07:20:58.592Z,12.80
2019-04-11T07:23:46.999Z,13.00
2019-04-11T07:26:25.100Z,12.90
2019-04-11T07:28:56.609Z,12.80
2019-04-11T07:31:39.860Z,12.70
2019-04-11T07:34:11.440Z,12.70
2019-04-11T07:37:00.128Z,12.60
2019-04-11T07:39:31.424Z,12.70
2019-04-11T07:42:18.226Z,12.60
2019-04-11T07:44:55.491Z,12.50
2019-04-11T07:47:28.195Z,12.50
2019-04-11T07:50:00.040Z,12.60
2019-04-11T07:52:32.951Z,12.60
2019-04-11T07:55:02.690Z,12.60
2019-04-11T07:57:36.622Z,12.50
2019-04-11T08:00:08.763Z,12.40
2019-04-11T08:02:56.044Z,12.40
2019-04-11T08:05:39.384Z,12.50
2019-04-11T08:08:23.237Z,12.50
2019-04-11T08:11:03.341Z,12.40
2019-04-11T08:13:52.126Z,12.40
2019-04-11T08:16:37.154Z,12.30
2019-04-11T08:19:24.791Z,12.30
2019-04-11T08:22:14.799Z,12.40
2019-04-11T08:24:49.027Z,12.40
2019-04-11T08:27:31.894Z,12.40
2019-04-11T08:30:03.340Z,12.50
2019-04-11T08:32:44.221Z,12.40
2019-04-11T08:35:21.586Z,12.50
2019-04-11T08:38:04.766Z,12.40
2019-04-11T08:40:51.354Z,12.50
2019-04-11T08:43:23.377Z,12.60
2019-04-11T08:45:54.679Z,12.80
2019-04-11T08:48:24.681Z,12.70
2019-04-11T08:51:09.695Z,12.80
2019-04-11T08:53:53.175Z,12.90
2019-04-11T08:56:23.297Z,13.10
2019-04-11T08:59:31.342Z,13.20
2019-04-11T09:02:02.496Z,13.00
2019-04-11T09:04:42.747Z,13.00
2019-04-11T09:07:14.231Z,13.10
2019-04-11T09:10:04.080Z,13.00
2019-04-11T09:12:34.668Z,13.20
2019-04-11T09:15:24.506Z,13.20
2019-04-11T09:18:03.463Z,13.40
2019-04-11T09:20:38.106Z,13.40
2019-04-11T09:23:09.389Z,13.40
2019-04-11T09:26:02.434Z,13.50
2019-04-11T09:28:35.629Z,13.70
2019-04-11T09:31:12.178Z,13.50
2019-04-11T09:33:57.948Z,13.80
2019-04-11T09:36:34.726Z,13.70
2019-04-11T09:39:23.902Z,13.70
2019-04-11T09:42:07.229Z,13.60
2019-04-11T09:44:47.468Z,13.50
2019-04-11T09:47:36.253Z,13.60
2019-04-11T09:50:14.625Z,13.60
2019-04-11T09:52:49.584Z,13.60
2019-04-11T09:55:37.493Z,13.40
2019-04-11T09:58:09.028Z,13.40
2019-04-11T10:00:43.100Z,13.40
2019-04-11T10:03:15.336Z,13.20
2019-04-11T10:05:46.773Z,13.30
2019-04-11T10:08:22.505Z,13.40
2019-04-11T10:10:59.713Z,13.50
2019-04-11T10:13:47.359Z,13.80
2019-04-11T10:16:19.948Z,13.60
2019-04-11T10:18:57.763Z,13.70
2019-04-11T10:21:29.181Z,13.60
2019-04-11T10:24:03.272Z,13.60
2019-04-11T10:26:34.634Z,13.60
2019-04-11T10:29:06.480Z,13.30
2019-04-11T10:31:46.518Z,13.30
2019-04-11T10:34:33.701Z,13.40
2019-04-11T10:37:03.630Z,13.30
2019-04-11T10:39:35.583Z,13.30
2019-04-11T10:42:14.940Z,13.30
2019-04-11T10:44:46.084Z,13.50
2019-04-11T10:47:17.582Z,13.60
2019-04-11T10:50:04.917Z,13.60
2019-04-11T10:52:36.260Z,13.70
2019-04-11T10:55:15.580Z,13.50
2019-04-11T10:57:49.857Z,13.60
2019-04-11T11:00:33.459Z,13.60
2019-04-11T11:03:11.619Z,14.00
2019-04-11T11:05:45.645Z,14.20
2019-04-11T11:08:19.525Z,14.00
2019-04-11T11:10:52.067Z,13.90
2019-04-11T11:13:42.343Z,13.70
2019-04-11T11:16:12.324Z,13.80
2019-04-11T11:19:20.688Z,13.70
2019-04-11T11:21:25.977Z,13.70
2019-04-11T11:24:10.767Z,14.10
2019-04-11T11:26:41.176Z,14.40
2019-04-11T11:29:28.964Z,14.80
2019-04-11T11:32:00.831Z,15.10
2019-04-11T11:34:32.544Z,14.80
2019-04-11T11:37:07.039Z,14.80
2019-04-11T11:39:47.598Z,14.90
2019-04-11T11:42:22.202Z,14.60
2019-04-11T11:45:10.989Z,15.20
2019-04-11T11:47:49.043Z,15.10
2019-04-11T11:50:31.841Z,15.70
2019-04-11T11:53:09.609Z,16.20
2019-04-11T11:55:41.276Z,16.70
2019-04-11T11:58:19.882Z,16.00
2019-04-11T12:00:53.869Z,15.90
2019-04-11T12:03:33.064Z,15.60
2019-04-11T12:06:07.279Z,15.10
2019-04-11T12:08:56.076Z,15.20
2019-04-11T12:11:28.256Z,15.40
2019-04-11T12:14:15.908Z,15.70
2019-04-11T12:16:59.500Z,16.00
2019-04-11T12:19:51.143Z,16.30
2019-04-11T12:22:16.008Z,16.10
2019-04-11T12:24:48.291Z,15.90
2019-04-11T12:27:20.589Z,15.70
2019-04-11T12:30:10.362Z,15.80
2019-04-11T12:32:44.412Z,15.30
2019-04-11T12:35:28.859Z,15.30
2019-04-11T12:38:20.318Z,14.90
2019-04-11T12:41:07.310Z,14.70
2019-04-11T12:43:39.045Z,14.60
2019-04-11T12:46:29.953Z,14.70
2019-04-11T12:48:59.346Z,14.70
2019-04-11T12:51:47.031Z,14.70
2019-04-11T12:54:18.247Z,14.50
2019-04-11T12:56:53.966Z,14.70
2019-04-11T12:59:23.544Z,14.70
2019-04-11T13:02:12.881Z,15.00
2019-04-11T13:04:44.981Z,15.20
2019-04-11T13:07:24.555Z,15.20
2019-04-11T13:09:55.687Z,15.20
2019-04-11T13:12:32.933Z,15.00
2019-04-11T13:15:20.271Z,14.90
2019-04-11T13:18:05.627Z,14.70
2019-04-11T13:20:45.766Z,14.80
2019-04-11T13:23:19.859Z,15.10
2019-04-11T13:26:07.196Z,15.10
2019-04-11T13:28:36.829Z,15.00
2019-04-11T13:31:24.357Z,14.90
2019-04-11T13:33:55.498Z,15.00
2019-04-11T13:36:26.712Z,15.30
2019-04-11T13:38:56.425Z,15.20
2019-04-11T13:41:33.348Z,15.00
2019-04-11T13:44:04.631Z,15.20
2019-04-11T13:46:35.846Z,15.40
2019-04-11T13:49:10.049Z,15.30
2019-04-11T13:51:44.150Z,15.10
2019-04-11T13:54:31.422Z,15.30
2019-04-11T13:57:18.843Z,15.40
2019-04-11T13:59:55.791Z,15.20
2019-04-11T14:02:26.929Z,15.30
2019-04-11T14:05:00.914Z,15.10
2019-04-11T14:07:30.657Z,15.10
2019-04-11T14:10:02.451Z,15.30
2019-04-11T14:12:34.112Z,15.10
2019-04-11T14:15:07.012Z,15.20
2019-04-11T14:17:41.618Z,15.60
2019-04-11T14:20:28.267Z,15.40
2019-04-11T14:23:04.628Z,15.40
2019-04-11T14:25:36.104Z,15.30
2019-04-11T14:28:08.295Z,15.40
2019-04-11T14:30:54.566Z,15.50
2019-04-11T14:33:27.250Z,15.80
2019-04-11T14:36:10.365Z,15.90
2019-04-11T14:38:47.561Z,16.00
2019-04-11T14:41:29.505Z,16.10
2019-04-11T14:44:00.742Z,15.90
2019-04-11T14:46:50.210Z,16.10
2019-04-11T14:49:19.985Z,16.60
2019-04-11T14:52:03.175Z,17.00
2019-04-11T14:54:36.926Z,16.90
2019-04-11T14:57:17.624Z,17.40
2019-04-11T14:59:48.829Z,17.40
2019-04-11T15:02:22.750Z,16.90
2019-04-11T15:05:13.595Z,16.30
2019-04-11T15:07:43.703Z,16.10
2019-04-11T15:10:30.892Z,16.10
2019-04-11T15:13:00.397Z,16.30
2019-04-11T15:15:38.614Z,16.40
2019-04-11T15:18:08.316Z,16.10
2019-04-11T15:20:41.193Z,16.10
2019-04-11T15:23:12.500Z,16.40
2019-04-11T15:25:46.448Z,16.20
2019-04-11T15:28:17.725Z,16.00
2019-04-11T15:30:49.679Z,16.00
2019-04-11T15:33:37.333Z,15.70
2019-04-11T15:36:08.685Z,15.70
2019-04-11T15:38:51.817Z,15.50
2019-04-11T15:41:21.459Z,15.30
2019-04-11T15:43:58.256Z,14.90
2019-04-11T15:46:29.572Z,14.70
2019-04-11T15:49:21.057Z,14.70
2019-04-11T15:51:50.029Z,14.70
2019-04-11T15:54:34.808Z,14.50
2019-04-11T15:57:06.237Z,14.40
2019-04-11T15:59:43.867Z,14.30
2019-04-11T16:02:13.425Z,14.20
2019-04-11T16:04:47.372Z,14.10
2019-04-11T16:07:37.332Z,14.00
2019-04-11T16:10:11.748Z,14.00
2019-04-11T16:12:41.722Z,13.70
2019-04-11T16:15:18.910Z,13.50
2019-04-11T16:18:07.535Z,13.40
2019-04-11T16:20:37.177Z,13.20
2019-04-11T16:23:10.992Z,13.20
2019-04-11T16:25:41.037Z,13.00
2019-04-11T16:28:21.065Z,13.00
2019-04-11T16:30:52.556Z,13.10
2019-04-11T16:33:39.769Z,13.20
2019-04-11T16:36:16.683Z,13.10
2019-04-11T16:39:05.842Z,13.10
2019-04-11T16:41:55.779Z,13.00
2019-04-11T16:44:38.594Z,13.10
2019-04-11T16:47:18.956Z,13.00
2019-04-11T16:49:48.606Z,13.00
2019-04-11T16:52:18.326Z,13.00
2019-04-11T16:54:47.921Z,13.00
2019-04-11T16:57:17.638Z,13.10
2019-04-11T16:59:49.609Z,13.00
2019-04-11T17:02:18.604Z,13.00
2019-04-11T17:04:48.242Z,13.10
2019-04-11T17:07:37.804Z,13.10
2019-04-11T17:10:08.903Z,13.10
2019-04-11T17:12:38.491Z,13.10
2019-04-11T17:15:08.958Z,13.10
2019-04-11T17:17:38.607Z,13.20
2019-04-11T17:20:08.521Z,12.90
2019-04-11T17:22:38.035Z,13.10
2019-04-11T17:25:07.751Z,13.00
2019-04-11T17:27:37.366Z,13.10
2019-04-11T17:30:07.847Z,13.00
2019-04-11T17:32:37.570Z,13.00
2019-04-11T17:35:07.273Z,13.00
2019-04-11T17:37:36.950Z,12.90
2019-04-11T17:40:07.693Z,13.00
2019-04-11T17:42:37.588Z,13.00
2019-04-11T17:45:07.831Z,12.90
2019-04-11T17:47:37.471Z,12.90
2019-04-11T17:50:42.859Z,13.00
2019-04-11T17:53:12.502Z,12.90
2019-04-11T17:55:42.066Z,12.90
2019-04-11T17:58:11.731Z,12.90
2019-04-11T18:00:43.021Z,13.00
2019-04-11T18:03:12.692Z,12.90
2019-04-11T18:05:54.392Z,12.80
2019-04-11T18:08:24.314Z,12.80
2019-04-11T18:10:55.988Z,12.90
2019-04-11T18:13:25.223Z,12.90
2019-04-11T18:15:54.785Z,12.90
2019-04-11T18:18:24.417Z,12.90
2019-04-11T18:20:53.990Z,12.90
2019-04-11T18:23:23.633Z,12.80
2019-04-11T18:25:53.284Z,12.80
2019-04-11T18:28:22.932Z,12.70
2019-04-11T18:30:54.035Z,12.80
2019-04-11T18:33:23.843Z,12.80
2019-04-11T18:35:53.556Z,12.80
2019-04-11T18:38:23.238Z,12.80
2019-04-11T18:40:52.977Z,12.70
2019-04-11T18:43:25.396Z,12.70
2019-04-11T18:45:54.111Z,12.70
2019-04-11T18:48:23.820Z,12.70
2019-04-11T18:50:53.866Z,12.70
2019-04-11T18:53:23.604Z,12.70
2019-04-11T18:55:53.389Z,12.70
2019-04-11T18:58:23.098Z,12.70
2019-04-11T19:00:52.880Z,12.60
2019-04-11T19:03:35.446Z,12.60
2019-04-11T19:05:54.890Z,12.60
2019-04-11T19:08:24.733Z,12.50
2019-04-11T19:10:54.486Z,12.50
2019-04-11T19:13:24.225Z,12.50
2019-04-11T19:16:13.787Z,12.50
2019-04-11T19:18:47.164Z,12.40
2019-04-11T19:21:14.245Z,12.40
2019-04-11T19:23:43.851Z,12.40
2019-04-11T19:26:14.662Z,12.50
2019-04-11T19:28:45.118Z,12.40
2019-04-11T19:31:14.827Z,12.40
2019-04-11T19:33:44.507Z,12.50
2019-04-11T19:36:14.297Z,12.40
2019-04-11T19:38:43.949Z,12.40
2019-04-11T19:41:17.098Z,12.40
2019-04-11T19:43:48.798Z,12.30
2019-04-11T19:46:19.889Z,12.40
2019-04-11T19:48:47.508Z,12.30
2019-04-11T19:51:17.085Z,12.30
2019-04-11T19:53:46.926Z,12.30
2019-04-11T19:56:18.245Z,12.30
2019-04-11T19:58:47.855Z,12.20
2019-04-11T20:01:17.696Z,12.20
2019-04-11T20:03:47.277Z,12.30
2019-04-11T20:06:16.895Z,12.30
2019-04-11T20:08:47.787Z,12.30
2019-04-11T20:11:17.558Z,12.30
2019-04-11T20:13:47.268Z,12.20
2019-04-11T20:16:17.082Z,12.20
2019-04-11T20:18:51.180Z,12.20
2019-04-11T20:21:17.974Z,12.20
2019-04-11T20:23:47.619Z,12.20
2019-04-11T20:26:19.944Z,12.10
2019-04-11T20:28:50.980Z,12.10
2019-04-11T20:31:19.719Z,12.10
2019-04-11T20:33:49.659Z,12.10
2019-04-11T20:36:19.268Z,12.00
2019-04-11T20:38:49.015Z,12.00
2019-04-11T20:41:22.965Z,12.10
2019-04-11T20:43:50.005Z,12.10
2019-04-11T20:46:19.825Z,12.10
2019-04-11T20:48:49.456Z,12.20
2019-04-11T20:51:19.041Z,12.20
2019-04-11T20:53:48.643Z,12.10
2019-04-11T20:56:23.939Z,12.00
2019-04-11T20:58:49.526Z,12.00
2019-04-11T21:01:19.132Z,12.00
2019-04-11T21:03:48.715Z,12.00
2019-04-11T21:06:18.524Z,12.00
2019-04-11T21:08:49.123Z,12.00
2019-04-11T21:11:18.892Z,11.90
2019-04-11T21:13:48.577Z,12.00
2019-04-11T21:16:18.180Z,12.00
2019-04-11T21:18:47.792Z,12.00
2019-04-11T21:21:17.371Z,12.00
2019-04-11T21:23:47.110Z,12.00
2019-04-11T21:26:16.836Z,12.00
2019-04-11T21:28:46.630Z,12.00
2019-04-11T21:31:16.269Z,12.10
2019-04-11T21:33:45.980Z,12.10
2019-04-11T21:36:15.656Z,12.00
2019-04-11T21:38:45.603Z,11.90
2019-04-11T21:41:15.285Z,12.00
2019-04-11T21:43:45.895Z,12.00
2019-04-11T21:46:17.241Z,12.00
2019-04-11T21:48:47.117Z,12.00
2019-04-11T21:51:16.773Z,12.00
2019-04-11T21:53:48.140Z,11.90
2019-04-11T21:56:18.582Z,12.00
2019-04-11T21:58:50.141Z,12.00
2019-04-11T22:01:21.957Z,12.00
2019-04-11T22:03:57.172Z,12.00
2019-04-11T22:06:24.957Z,12.00
2019-04-11T22:08:54.465Z,12.00
2019-04-11T22:11:25.283Z,12.00
2019-04-11T22:13:54.938Z,12.00
2019-04-11T22:16:24.573Z,12.00
2019-04-11T22:18:54.157Z,12.00
2019-04-11T22:21:23.872Z,12.10
2019-04-11T22:23:53.660Z,12.00
2019-04-11T22:26:23.305Z,12.00
2019-04-11T22:28:55.612Z,12.00
2019-04-11T22:31:28.781Z,12.00
2019-04-11T22:34:11.883Z,12.00
2019-04-11T22:36:41.516Z,12.00
2019-04-11T22:39:11.564Z,12.00
2019-04-11T22:41:41.286Z,12.00
2019-04-11T22:44:10.854Z,11.90
2019-04-11T22:46:40.498Z,12.00
2019-04-11T22:49:10.137Z,12.00
2019-04-11T22:51:42.566Z,12.00
2019-04-11T22:54:22.893Z,12.00
2019-04-11T22:56:52.463Z,12.00
2019-04-11T22:59:22.025Z,12.00
2019-04-11T23:01:53.264Z,12.10
2019-04-11T23:04:22.834Z,12.10
2019-04-11T23:06:52.470Z,12.00
2019-04-11T23:09:21.966Z,12.10
2019-04-11T23:11:51.536Z,12.10
2019-04-11T23:14:21.108Z,12.00
2019-04-11T23:16:54.120Z,12.10
2019-04-11T23:19:24.657Z,12.10
2019-04-11T23:21:54.247Z,12.10
2019-04-11T23:24:23.892Z,12.00
2019-04-11T23:26:53.398Z,12.10
2019-04-11T23:29:22.967Z,12.10
2019-04-11T23:31:52.684Z,12.10
2019-04-11T23:34:22.748Z,12.00
2019-04-11T23:36:52.368Z,12.00
2019-04-11T23:39:22.870Z,12.00
2019-04-11T23:41:53.081Z,12.00
2019-04-11T23:44:22.724Z,12.00
2019-04-11T23:46:52.710Z,12.00
2019-04-11T23:49:24.743Z,12.00
2019-04-11T23:51:55.719Z,12.00
2019-04-11T23:54:28.987Z,12.00
2019-04-11T23:57:00.486Z,11.90
2019-04-11T23:59:32.013Z,11.90
